createdAt,value
2022-09-20T00:01:35.582Z,100794.34
2022-09-20T00:04:06.875Z,100790.91
2022-09-20T00:06:36.295Z,100786.63
2022-09-20T00:09:05.299Z,100783.19
2022-09-20T00:11:35.724Z,100789.38
2022-09-20T00:14:08.379Z,100781.53
2022-09-20T00:16:41.332Z,100785.09
2022-09-20T00:19:17.314Z,100784.28
2022-09-20T00:21:45.604Z,100786.06
2022-09-20T00:24:14.147Z,100786.06
2022-09-20T00:26:42.472Z,100782.63
2022-09-20T00:29:12.684Z,100793.19
2022-09-20T00:31:42.934Z,100782.75
2022-09-20T00:34:29.874Z,100786.31
2022-09-20T00:36:58.257Z,100786.31
2022-09-20T00:39:26.991Z,100788.09
2022-09-20T00:41:55.228Z,100788.97
2022-09-20T00:44:44.695Z,100791.66
2022-09-20T00:47:22.978Z,100793.44
2022-09-20T00:49:54.634Z,100794.31
2022-09-20T00:52:23.878Z,100797.84
2022-09-20T00:54:52.276Z,100794.47
2022-09-20T00:57:20.799Z,100791.00
2022-09-20T00:59:51.666Z,100799.81
2022-09-20T01:02:27.079Z,100792.03
2022-09-20T01:04:57.603Z,100797.31
2022-09-20T01:07:26.641Z,100797.38
2022-09-20T01:09:54.916Z,100793.03
2022-09-20T01:12:27.342Z,100790.50
2022-09-20T01:14:57.627Z,100788.81
2022-09-20T01:17:30.330Z,100800.19
2022-09-20T01:20:10.933Z,100794.19
2022-09-20T01:22:49.609Z,100797.72
2022-09-20T01:25:26.838Z,100794.28
2022-09-20T01:27:56.721Z,100785.63
2022-09-20T01:30:29.662Z,100794.44
2022-09-20T01:33:08.550Z,100799.69
2022-09-20T01:35:37.614Z,100806.72
2022-09-20T01:38:30.846Z,100796.28
2022-09-20T01:41:07.588Z,100797.16
2022-09-20T01:43:43.874Z,100795.47
2022-09-20T01:46:25.599Z,100798.97
2022-09-20T01:49:03.799Z,100798.91
2022-09-20T01:52:03.999Z,100798.00
2022-09-20T01:55:14.233Z,100801.47
2022-09-20T01:58:08.446Z,100806.72
2022-09-20T02:00:52.126Z,100804.91
2022-09-20T02:03:48.942Z,100803.13
2022-09-20T02:06:34.872Z,100798.72
2022-09-20T02:09:26.856Z,100798.66
2022-09-20T02:12:19.447Z,100795.94
2022-09-20T02:15:00.326Z,100796.72
2022-09-20T02:17:39.550Z,100803.69
2022-09-20T02:20:20.897Z,100798.38
2022-09-20T02:23:01.168Z,100799.16
2022-09-20T02:25:55.938Z,100800.00
2022-09-20T02:28:34.764Z,100799.94
2022-09-20T02:31:11.651Z,100795.47
2022-09-20T02:34:03.337Z,100791.88
2022-09-20T02:36:41.638Z,100790.13
2022-09-20T02:39:16.326Z,100787.44
2022-09-20T02:41:56.557Z,100790.97
2022-09-20T02:44:40.287Z,100791.69
2022-09-20T02:47:18.357Z,100788.19
2022-09-20T02:50:00.457Z,100782.09
2022-09-20T02:52:37.356Z,100782.00
2022-09-20T02:55:13.793Z,100785.47
2022-09-20T02:57:49.637Z,100779.41
2022-09-20T03:00:24.700Z,100786.44
2022-09-20T03:03:07.261Z,100784.63
2022-09-20T03:05:46.264Z,100781.13
2022-09-20T03:08:29.558Z,100784.63
2022-09-20T03:11:09.835Z,100781.13
2022-09-20T03:13:55.533Z,100779.41
2022-09-20T03:16:39.905Z,100783.75
2022-09-20T03:19:22.469Z,100783.75
2022-09-20T03:22:01.719Z,100784.63
2022-09-20T03:24:42.314Z,100784.63
2022-09-20T03:27:20.866Z,100782.00
2022-09-20T03:30:02.474Z,100785.53
2022-09-20T03:32:45.474Z,100790.78
2022-09-20T03:35:25.683Z,100789.84
2022-09-20T03:38:16.904Z,100785.47
2022-09-20T03:41:07.314Z,100785.47
2022-09-20T03:43:53.680Z,100789.84
2022-09-20T03:46:27.645Z,100781.19
2022-09-20T03:49:47.988Z,100786.47
2022-09-20T03:52:29.784Z,100783.84
2022-09-20T03:55:32.436Z,100786.53
2022-09-20T03:58:14.746Z,100791.78
2022-09-20T04:00:57.476Z,100786.53
2022-09-20T04:03:34.231Z,100793.56
2022-09-20T04:06:30.254Z,100788.34
2022-09-20T04:09:20.813Z,100796.19
2022-09-20T04:12:00.346Z,100794.47
2022-09-20T04:14:40.411Z,100791.84
2022-09-20T04:17:24.393Z,100794.50
2022-09-20T04:20:02.508Z,100791.88
2022-09-20T04:22:31.438Z,100797.13
2022-09-20T04:25:05.001Z,100799.72
2022-09-20T04:27:40.189Z,100795.47
2022-09-20T04:30:19.327Z,100793.69
2022-09-20T04:32:56.678Z,100788.47
2022-09-20T04:35:53.884Z,100792.03
2022-09-20T04:38:22.810Z,100793.81
2022-09-20T04:41:16.602Z,100797.28
2022-09-20T04:44:41.502Z,100785.97
2022-09-20T04:47:42.697Z,100794.69
2022-09-20T04:50:45.919Z,100792.97
2022-09-20T04:53:48.233Z,100796.50
2022-09-20T04:56:22.541Z,100797.31
2022-09-20T04:59:06.748Z,100804.34
2022-09-20T05:02:11.543Z,100809.63
2022-09-20T05:05:18.925Z,100811.41
2022-09-20T05:08:21.030Z,100822.78
2022-09-20T05:11:23.281Z,100811.41
2022-09-20T05:14:12.821Z,100820.16
2022-09-20T05:17:00.496Z,100821.94
2022-09-20T05:19:35.334Z,100814.97
2022-09-20T05:22:19.063Z,100813.31
2022-09-20T05:25:06.470Z,100815.13
2022-09-20T05:27:44.323Z,100815.13
2022-09-20T05:30:34.450Z,100822.13
2022-09-20T05:33:13.173Z,100819.50
2022-09-20T05:35:49.947Z,100822.19
2022-09-20T05:41:13.991Z,100828.47
2022-09-20T05:43:53.621Z,100829.34
2022-09-20T05:46:35.815Z,100842.50
2022-09-20T05:49:13.051Z,100843.47
2022-09-20T05:51:59.617Z,100839.94
2022-09-20T05:54:50.854Z,100847.03
2022-09-20T05:57:30.974Z,100842.72
2022-09-20T06:00:07.439Z,100843.69
2022-09-20T06:02:53.961Z,100841.13
2022-09-20T06:05:34.447Z,100839.53
2022-09-20T06:08:24.352Z,100845.72
2022-09-20T06:11:14.141Z,100837.06
2022-09-20T06:14:08.885Z,100845.97
2022-09-20T06:16:44.458Z,100845.13
2022-09-20T06:19:26.360Z,100849.59
2022-09-20T06:21:56.151Z,100843.66
2022-09-20T06:24:43.696Z,100853.34
2022-09-20T06:27:15.502Z,100843.00
2022-09-20T06:29:53.058Z,100854.47
2022-09-20T06:32:21.632Z,100852.03
2022-09-20T06:34:51.958Z,100862.59
2022-09-20T06:37:52.545Z,100864.50
2022-09-20T06:40:51.273Z,100860.25
2022-09-20T06:43:19.541Z,100863.91
2022-09-20T06:45:48.492Z,100866.66
2022-09-20T06:48:19.161Z,100863.31
2022-09-20T06:50:48.928Z,100859.06
2022-09-20T06:53:19.586Z,100867.03
2022-09-20T06:55:48.556Z,100865.44
2022-09-20T06:58:16.820Z,100871.63
2022-09-20T07:00:45.361Z,100864.75
2022-09-20T07:03:13.724Z,100867.47
2022-09-20T07:05:42.130Z,100873.69
2022-09-20T07:08:12.535Z,100872.91
2022-09-20T07:10:41.191Z,100873.88
2022-09-20T07:13:13.756Z,100878.41
2022-09-20T07:15:42.192Z,100879.31
2022-09-20T07:18:10.593Z,100881.22
2022-09-20T07:20:39.495Z,100881.28
2022-09-20T07:23:08.135Z,100883.06
2022-09-20T07:25:38.121Z,100883.13
2022-09-20T07:28:06.424Z,100881.47
2022-09-20T07:30:34.708Z,100882.34
2022-09-20T07:33:03.065Z,100881.56
2022-09-20T07:35:31.797Z,100898.34
2022-09-20T07:38:00.242Z,100879.28
2022-09-20T07:40:28.647Z,100880.28
2022-09-20T07:42:58.924Z,100877.75
2022-09-20T07:45:27.338Z,100882.22
2022-09-20T07:47:55.686Z,100883.16
2022-09-20T07:50:24.094Z,100885.84
2022-09-20T07:52:52.386Z,100883.25
2022-09-20T07:55:20.695Z,100885.94
2022-09-20T07:57:48.963Z,100893.03
2022-09-20T08:00:19.294Z,100894.09
2022-09-20T08:02:47.717Z,100889.03
2022-09-20T08:05:16.059Z,100892.88
2022-09-20T08:07:44.334Z,100887.81
2022-09-20T08:10:12.689Z,100879.25
2022-09-20T08:15:31.985Z,100872.59
2022-09-20T08:18:00.410Z,100885.88
2022-09-20T08:20:28.814Z,100902.63
2022-09-20T08:23:22.031Z,100907.13
2022-09-20T08:25:48.474Z,100915.09
2022-09-20T08:28:16.835Z,100909.03
2022-09-20T08:30:46.550Z,100908.31
2022-09-20T08:33:15.056Z,100906.69
2022-09-20T08:35:43.386Z,100903.31
2022-09-20T08:41:05.802Z,100910.78
2022-09-20T08:43:39.758Z,100904.81
2022-09-20T08:46:15.402Z,100905.00
2022-09-20T08:48:44.993Z,100908.72
2022-09-20T08:51:22.681Z,100915.09
2022-09-20T08:53:54.209Z,100907.50
2022-09-20T08:56:23.433Z,100911.22
2022-09-20T08:58:53.188Z,100906.22
2022-09-20T09:01:25.319Z,100910.88
2022-09-20T09:03:58.795Z,100903.16
2022-09-20T09:06:27.133Z,100907.69
2022-09-20T09:09:00.365Z,100916.59
2022-09-20T09:11:28.642Z,100920.19
2022-09-20T09:14:01.356Z,100906.25
2022-09-20T09:16:36.493Z,100907.25
2022-09-20T09:19:36.806Z,100902.22
2022-09-20T09:22:06.618Z,100908.63
2022-09-20T09:24:34.999Z,100913.13
2022-09-20T09:27:10.156Z,100906.25
2022-09-20T09:29:49.857Z,100907.19
2022-09-20T09:32:25.037Z,100913.34
2022-09-20T09:34:53.371Z,100910.66
2022-09-20T09:37:28.815Z,100921.16
2022-09-20T09:40:11.221Z,100919.41
2022-09-20T09:42:50.098Z,100921.19
2022-09-20T09:45:36.087Z,100912.47
2022-09-20T09:48:19.936Z,100916.09
2022-09-20T09:50:49.029Z,100912.72
2022-09-20T09:53:21.735Z,100914.56
2022-09-20T09:56:17.886Z,100912.94
2022-09-20T09:59:07.447Z,100907.75
2022-09-20T10:01:44.800Z,100915.75
2022-09-20T10:04:21.471Z,100913.28
2022-09-20T10:06:59.852Z,100909.00
2022-09-20T10:09:46.590Z,100906.56
2022-09-20T10:12:28.717Z,100899.72
2022-09-20T10:15:09.551Z,100905.13
2022-09-20T10:17:49.294Z,100903.50
2022-09-20T10:20:35.626Z,100908.88
2022-09-20T10:23:51.455Z,100900.09
2022-09-20T10:26:22.335Z,100905.38
2022-09-20T10:29:00.045Z,100903.50
2022-09-20T10:31:41.577Z,100896.47
2022-09-20T10:34:51.354Z,100899.88
2022-09-20T10:37:34.187Z,100908.56
2022-09-20T10:40:14.328Z,100908.50
2022-09-20T10:43:06.115Z,100911.03
2022-09-20T10:48:35.451Z,100916.19
2022-09-20T10:51:12.534Z,100910.00
2022-09-20T10:53:48.497Z,100913.44
2022-09-20T10:56:27.560Z,100916.16
2022-09-20T10:59:14.301Z,100914.47
2022-09-20T11:01:50.076Z,100911.91
2022-09-20T11:04:48.141Z,100908.50
2022-09-20T11:07:20.217Z,100914.78
2022-09-20T11:09:56.439Z,100910.50
2022-09-20T11:12:32.327Z,100915.91
2022-09-20T11:15:05.451Z,100920.44
2022-09-20T11:17:40.417Z,100917.91
2022-09-20T11:20:17.992Z,100921.56
2022-09-20T11:22:51.562Z,100920.88
2022-09-20T11:25:29.436Z,100926.28
2022-09-20T11:28:04.029Z,100921.13
2022-09-20T11:30:39.602Z,100915.84
2022-09-20T11:33:18.683Z,100916.69
2022-09-20T11:35:50.198Z,100925.44
2022-09-20T11:38:24.875Z,100926.31
2022-09-20T11:40:58.114Z,100930.66
2022-09-20T11:43:28.984Z,100937.63
2022-09-20T11:46:00.978Z,100937.56
2022-09-20T11:48:35.635Z,100940.16
2022-09-20T11:51:12.017Z,100940.94
2022-09-20T11:54:09.090Z,100946.19
2022-09-20T11:56:39.897Z,100944.44
2022-09-20T11:59:27.114Z,100936.53
2022-09-20T12:01:58.193Z,100941.91
2022-09-20T12:04:33.976Z,100936.69
2022-09-20T12:07:10.484Z,100939.25
2022-09-20T12:09:44.420Z,100941.81
2022-09-20T12:12:30.382Z,100933.88
2022-09-20T12:15:01.766Z,100932.09
2022-09-20T12:18:16.349Z,100926.81
2022-09-20T12:21:16.168Z,100933.88
2022-09-20T12:24:02.246Z,100932.09
2022-09-20T12:26:48.555Z,100930.31
2022-09-20T12:29:54.159Z,100929.44
2022-09-20T12:32:34.927Z,100928.53
2022-09-20T12:35:03.153Z,100927.69
2022-09-20T12:37:31.546Z,100930.50
2022-09-20T12:39:59.922Z,100935.94
2022-09-20T12:42:31.297Z,100922.75
2022-09-20T12:45:03.899Z,100927.38
2022-09-20T12:47:35.266Z,100919.66
2022-09-20T12:50:22.591Z,100923.38
2022-09-20T12:52:56.894Z,100920.97
2022-09-20T12:55:43.824Z,100914.09
2022-09-20T12:58:27.944Z,100916.84
2022-09-20T13:01:32.201Z,100917.94
2022-09-20T13:04:38.087Z,100916.47
2022-09-20T13:07:36.416Z,100913.38
2022-09-20T13:10:32.339Z,100908.56
2022-09-20T13:13:05.627Z,100907.19
2022-09-20T13:15:35.594Z,100909.16
2022-09-20T13:18:04.032Z,100909.31
2022-09-20T13:20:35.142Z,100909.44
2022-09-20T13:23:06.352Z,100902.50
2022-09-20T13:25:35.521Z,100897.25
2022-09-20T13:28:11.021Z,100896.44
2022-09-20T13:30:41.721Z,100898.31
2022-09-20T13:33:21.772Z,100897.66
2022-09-20T13:35:54.394Z,100895.25
2022-09-20T13:38:27.142Z,100888.41
2022-09-20T13:41:04.518Z,100890.41
2022-09-20T13:43:37.833Z,100891.38
2022-09-20T13:46:12.017Z,100888.72
2022-09-20T13:48:40.823Z,100888.59
2022-09-20T13:51:19.193Z,100881.47
2022-09-20T13:53:48.868Z,100890.19
2022-09-20T13:56:22.298Z,100882.19
2022-09-20T13:58:51.531Z,100879.38
2022-09-20T14:01:30.120Z,100884.75
2022-09-20T14:04:04.300Z,100884.06
2022-09-20T14:06:33.277Z,100884.31
2022-09-20T14:09:10.823Z,100888.13
2022-09-20T14:11:40.947Z,100878.66
2022-09-20T14:14:13.282Z,100879.81
2022-09-20T14:16:45.130Z,100888.84
2022-09-20T14:19:16.663Z,100888.97
2022-09-20T14:21:45.653Z,100887.28
2022-09-20T14:24:33.483Z,100887.28
2022-09-20T14:27:18.076Z,100883.63
2022-09-20T14:29:47.986Z,100880.88
2022-09-20T14:32:28.756Z,100879.91
2022-09-20T14:35:04.931Z,100882.50
2022-09-20T14:37:36.052Z,100877.00
2022-09-20T14:40:17.717Z,100876.06
2022-09-20T14:42:48.157Z,100874.19
2022-09-20T14:45:24.213Z,100882.94
2022-09-20T14:48:05.683Z,100886.38
2022-09-20T14:50:40.551Z,100875.66
2022-09-20T14:53:27.849Z,100881.72
2022-09-20T14:56:00.467Z,100878.06
2022-09-20T14:58:28.832Z,100878.72
2022-09-20T15:01:01.505Z,100896.19
2022-09-20T15:03:33.250Z,100894.22
2022-09-20T15:06:01.701Z,100887.88
2022-09-20T15:08:30.268Z,100892.16
2022-09-20T15:11:01.852Z,100893.78
2022-09-20T15:13:30.093Z,100897.19
2022-09-20T15:15:59.613Z,100896.25
2022-09-20T15:18:34.263Z,100896.13
2022-09-20T15:21:02.721Z,100899.59
2022-09-20T15:23:30.982Z,100893.31
2022-09-20T15:26:00.085Z,100902.06
2022-09-20T15:28:32.534Z,100895.81
2022-09-20T15:31:00.860Z,100900.13
2022-09-20T15:33:31.358Z,100896.56
2022-09-20T15:36:00.193Z,100894.72
2022-09-20T15:38:28.586Z,100904.34
2022-09-20T15:40:57.331Z,100905.13
2022-09-20T15:43:27.320Z,100899.72
2022-09-20T15:46:00.349Z,100907.63
2022-09-20T15:48:30.963Z,100906.66
2022-09-20T15:51:03.608Z,100898.63
2022-09-20T15:53:34.218Z,100898.56
2022-09-20T15:56:04.900Z,100905.56
2022-09-20T15:58:36.653Z,100908.19
2022-09-20T16:01:09.510Z,100913.38
2022-09-20T16:03:38.675Z,100916.03
2022-09-20T16:06:08.350Z,100916.06
2022-09-20T16:08:38.914Z,100915.25
2022-09-20T16:11:08.735Z,100911.72
2022-09-20T16:13:38.915Z,100909.22
2022-09-20T16:16:13.208Z,100904.00
2022-09-20T16:18:59.747Z,100909.34
2022-09-20T16:21:29.487Z,100911.16
2022-09-20T16:24:01.259Z,100912.09
2022-09-20T16:26:31.806Z,100910.31
2022-09-20T16:29:00.793Z,100912.09
2022-09-20T16:31:37.576Z,100910.28
2022-09-20T16:34:08.154Z,100914.69
2022-09-20T16:36:36.400Z,100919.91
2022-09-20T16:39:04.864Z,100914.53
2022-09-20T16:41:33.678Z,100922.41
2022-09-20T16:44:02.209Z,100922.38
2022-09-20T16:46:33.407Z,100917.00
2022-09-20T16:49:01.712Z,100932.78
2022-09-20T16:51:34.064Z,100934.50
2022-09-20T16:54:03.856Z,100937.88
2022-09-20T16:56:34.992Z,100929.03
2022-09-20T16:59:05.022Z,100934.19
2022-09-20T17:01:36.619Z,100929.75
2022-09-20T17:04:06.621Z,100934.03
2022-09-20T17:06:36.440Z,100935.66
2022-09-20T17:09:06.041Z,100941.72
2022-09-20T17:11:36.860Z,100938.06
2022-09-20T17:14:06.428Z,100942.41
2022-09-20T17:16:38.972Z,100942.31
2022-09-20T17:19:09.311Z,100949.31
2022-09-20T17:21:39.984Z,100945.69
2022-09-20T17:24:08.587Z,100943.81
2022-09-20T17:26:38.718Z,100949.03
2022-09-20T17:29:09.401Z,100955.13
2022-09-20T17:31:41.614Z,100963.84
2022-09-20T17:34:12.107Z,100954.09
2022-09-20T17:36:42.508Z,100968.97
2022-09-20T17:39:12.937Z,100969.78
2022-09-20T17:41:42.930Z,100968.78
2022-09-20T17:44:12.111Z,100966.03
2022-09-20T17:46:44.303Z,100973.84
2022-09-20T17:49:14.073Z,100983.38
2022-09-20T17:51:44.196Z,100982.38
2022-09-20T17:54:14.082Z,100977.81
2022-09-20T17:56:47.449Z,100982.94
2022-09-20T17:59:19.001Z,100976.63
2022-09-20T18:01:50.500Z,100981.75
2022-09-20T18:04:21.111Z,100985.94
2022-09-20T18:06:51.507Z,100991.91
2022-09-20T18:09:23.381Z,100995.22
2022-09-20T18:11:54.091Z,100994.94
2022-09-20T18:14:24.959Z,100999.13
2022-09-20T18:16:58.203Z,101002.44
2022-09-20T18:19:33.100Z,101012.75
2022-09-20T18:22:03.333Z,101005.44
2022-09-20T18:24:33.380Z,101006.97
2022-09-20T18:27:04.188Z,101011.13
2022-09-20T18:29:36.834Z,101007.44
2022-09-20T18:32:08.630Z,101015.09
2022-09-20T18:34:36.962Z,101025.44
2022-09-20T18:37:09.082Z,101021.72
2022-09-20T18:39:40.739Z,101021.44
2022-09-20T18:42:09.057Z,101031.78
2022-09-20T18:44:38.058Z,101031.56
2022-09-20T18:47:07.848Z,101026.13
2022-09-20T18:49:36.420Z,101031.19
2022-09-20T18:52:05.457Z,101023.94
2022-09-20T18:54:33.839Z,101029.06
2022-09-20T18:57:02.801Z,101032.34
2022-09-20T18:59:31.588Z,101037.44
2022-09-20T19:02:10.269Z,101032.00
2022-09-20T19:05:01.010Z,101041.41
2022-09-20T19:07:41.553Z,101033.28
2022-09-20T19:10:22.599Z,101042.72
2022-09-20T19:12:58.817Z,101040.72
2022-09-20T19:15:40.058Z,101037.06
2022-09-20T19:18:26.983Z,101046.47
2022-09-20T19:21:01.429Z,101050.66
2022-09-20T19:23:46.201Z,101054.00
2022-09-20T19:26:21.641Z,101058.09
2022-09-20T19:28:51.034Z,101056.13
2022-09-20T19:31:24.377Z,101061.22
2022-09-20T19:33:55.849Z,101071.53
2022-09-20T19:36:25.317Z,101065.25
2022-09-20T19:39:05.284Z,101067.69
2022-09-20T19:41:47.269Z,101078.03
2022-09-20T19:44:29.134Z,101079.59
2022-09-20T19:47:13.714Z,101082.03
2022-09-20T19:49:53.606Z,101085.44
2022-09-20T19:52:22.961Z,101089.66
2022-09-20T19:54:52.570Z,101091.28
2022-09-20T19:57:23.528Z,101090.31
2022-09-20T19:59:52.881Z,101086.75
2022-09-20T20:02:21.490Z,101080.53
2022-09-20T20:04:52.745Z,101091.88
2022-09-20T20:07:30.607Z,101089.13
2022-09-20T20:10:09.180Z,101091.81
2022-09-20T20:12:44.868Z,101095.19
2022-09-20T20:15:22.578Z,101097.81
2022-09-20T20:17:58.899Z,101096.88
2022-09-20T20:20:34.778Z,101102.94
2022-09-20T20:23:35.870Z,101107.31
2022-09-20T20:26:08.834Z,101109.03
2022-09-20T20:28:37.899Z,101114.28
2022-09-20T20:31:12.121Z,101106.41
2022-09-20T20:33:41.288Z,101106.41
2022-09-20T20:36:11.901Z,101110.75
2022-09-20T20:38:41.628Z,101108.13
2022-09-20T20:41:11.696Z,101122.16
2022-09-20T20:43:41.906Z,101118.56
2022-09-20T20:46:12.162Z,101123.81
2022-09-20T20:48:40.555Z,101118.56
2022-09-20T20:51:11.585Z,101125.47
2022-09-20T20:53:44.753Z,101128.94
2022-09-20T20:56:15.460Z,101127.13
2022-09-20T20:58:45.038Z,101135.00
2022-09-20T21:01:15.688Z,101136.66
2022-09-20T21:03:47.907Z,101136.63
2022-09-20T21:06:17.791Z,101134.81
2022-09-20T21:08:49.775Z,101135.66
2022-09-20T21:11:20.349Z,101139.13
2022-09-20T21:13:48.849Z,101145.25
2022-09-20T21:16:18.817Z,101149.53
2022-09-20T21:18:48.599Z,101146.78
2022-09-20T21:21:20.671Z,101149.41
2022-09-20T21:23:50.888Z,101150.19
2022-09-20T21:26:20.150Z,101155.34
2022-09-20T21:28:52.065Z,101154.38
2022-09-20T21:31:21.794Z,101153.38
2022-09-20T21:33:50.302Z,101159.38
2022-09-20T21:36:21.144Z,101160.16
2022-09-20T21:38:49.782Z,101157.47
2022-09-20T21:41:19.970Z,101160.81
2022-09-20T21:43:48.825Z,101154.53
2022-09-20T21:46:18.928Z,101156.13
2022-09-20T21:48:48.606Z,101156.81
2022-09-20T21:51:19.570Z,101159.31
2022-09-20T21:53:50.233Z,101157.47
2022-09-20T21:56:18.596Z,101156.41
2022-09-20T21:58:47.487Z,101157.19
2022-09-20T22:01:17.657Z,101166.66
2022-09-20T22:03:47.645Z,101161.28
2022-09-20T22:06:17.505Z,101164.59
2022-09-20T22:08:49.761Z,101171.47
2022-09-20T22:11:19.057Z,101167.91
2022-09-20T22:13:49.164Z,101166.00
2022-09-20T22:16:20.093Z,101162.41
2022-09-20T22:18:49.023Z,101173.63
2022-09-20T22:21:18.869Z,101169.16
2022-09-20T22:23:50.816Z,101161.19
2022-09-20T22:26:21.249Z,101160.13
2022-09-20T22:28:50.130Z,101159.13
2022-09-20T22:31:20.714Z,101154.56
2022-09-20T22:33:51.270Z,101151.88
2022-09-20T22:36:22.641Z,101150.84
2022-09-20T22:38:53.865Z,101155.94
2022-09-20T22:41:22.860Z,101159.25
2022-09-20T22:43:51.882Z,101155.66
2022-09-20T22:46:22.048Z,101160.75
2022-09-20T22:48:50.856Z,101160.59
2022-09-20T22:51:20.710Z,101162.16
2022-09-20T22:53:49.937Z,101166.38
2022-09-20T22:56:21.119Z,101158.41
2022-09-20T22:58:51.675Z,101162.56
2022-09-20T23:01:21.501Z,101172.00
2022-09-20T23:03:54.930Z,101173.56
2022-09-20T23:06:25.572Z,101178.63
2022-09-20T23:08:58.342Z,101178.44
2022-09-20T23:11:28.840Z,101176.53
2022-09-20T23:13:59.397Z,101182.44
2022-09-20T23:16:29.438Z,101181.47
2022-09-20T23:18:59.221Z,101173.47
2022-09-20T23:21:27.944Z,101174.16
2022-09-20T23:23:58.625Z,101175.72
2022-09-20T23:26:30.562Z,101175.50
2022-09-20T23:29:04.026Z,101176.25
2022-09-20T23:31:34.554Z,101170.97
2022-09-20T23:34:04.820Z,101176.03
2022-09-20T23:36:35.654Z,101170.66
2022-09-20T23:39:04.350Z,101179.25
2022-09-20T23:41:34.267Z,101174.69
2022-09-20T23:44:03.776Z,101174.63
2022-09-20T23:46:33.191Z,101174.50
2022-09-20T23:49:01.480Z,101181.38
2022-09-20T23:51:30.673Z,101168.97
2022-09-20T23:53:59.476Z,101174.94
2022-09-20T23:56:28.764Z,101173.06
2022-09-20T23:58:58.385Z,101168.59
